sensor_id;sensor_type;location;lat;lon;timestamp;P1;durP1;ratioP1;P2;durP2;ratioP2
59974;SDS011;62136;-35.664;-63.766;2023-10-09T00:01:07;1.35;;;1.25;;
59974;SDS011;62136;-35.664;-63.766;2023-10-09T00:03:46;1.20;;;1.10;;
59974;SDS011;62136;-35.664;-63.766;2023-10-09T00:06:19;2.45;;;1.40;;
59974;SDS011;62136;-35.664;-63.766;2023-10-09T00:09:03;2.33;;;1.20;;
59974;SDS011;62136;-35.664;-63.766;2023-10-09T00:11:48;1.33;;;1.13;;
59974;SDS011;62136;-35.664;-63.766;2023-10-09T00:14:26;2.53;;;1.20;;
59974;SDS011;62136;-35.664;-63.766;2023-10-09T00:16:56;1.55;;;1.20;;
59974;SDS011;62136;-35.664;-63.766;2023-10-09T00:19:38;1.30;;;1.10;;
59974;SDS011;62136;-35.664;-63.766;2023-10-09T00:22:08;1.08;;;0.98;;
59974;SDS011;62136;-35.664;-63.766;2023-10-09T00:24:56;1.50;;;1.25;;
59974;SDS011;62136;-35.664;-63.766;2023-10-09T00:27:49;1.35;;;1.23;;
59974;SDS011;62136;-35.664;-63.766;2023-10-09T00:30:17;1.42;;;1.17;;
59974;SDS011;62136;-35.664;-63.766;2023-10-09T00:32:46;3.42;;;1.30;;
59974;SDS011;62136;-35.664;-63.766;2023-10-09T00:35:36;1.73;;;1.48;;
59974;SDS011;62136;-35.664;-63.766;2023-10-09T00:38:19;2.35;;;1.40;;
59974;SDS011;62136;-35.664;-63.766;2023-10-09T00:40:50;1.33;;;1.23;;
59974;SDS011;62136;-35.664;-63.766;2023-10-09T00:43:33;1.40;;;1.30;;
59974;SDS011;62136;-35.664;-63.766;2023-10-09T00:46:04;1.25;;;1.15;;
59974;SDS011;62136;-35.664;-63.766;2023-10-09T00:48:55;2.25;;;1.40;;
59974;SDS011;62136;-35.664;-63.766;2023-10-09T00:51:26;1.40;;;1.30;;
59974;SDS011;62136;-35.664;-63.766;2023-10-09T00:54:01;2.00;;;1.50;;
59974;SDS011;62136;-35.664;-63.766;2023-10-09T00:59:22;1.55;;;1.45;;
59974;SDS011;62136;-35.664;-63.766;2023-10-09T01:01:51;3.38;;;1.40;;
59974;SDS011;62136;-35.664;-63.766;2023-10-09T01:04:29;1.92;;;1.40;;
59974;SDS011;62136;-35.664;-63.766;2023-10-09T01:09:27;2.03;;;1.58;;
59974;SDS011;62136;-35.664;-63.766;2023-10-09T01:11:55;1.35;;;1.15;;
59974;SDS011;62136;-35.664;-63.766;2023-10-09T01:14:25;3.00;;;1.55;;
59974;SDS011;62136;-35.664;-63.766;2023-10-09T01:16:52;3.17;;;1.73;;
59974;SDS011;62136;-35.664;-63.766;2023-10-09T01:19:22;2.47;;;1.30;;
59974;SDS011;62136;-35.664;-63.766;2023-10-09T01:21:52;2.67;;;1.80;;
59974;SDS011;62136;-35.664;-63.766;2023-10-09T01:24:20;2.80;;;1.50;;
59974;SDS011;62136;-35.664;-63.766;2023-10-09T01:26:48;3.03;;;1.90;;
59974;SDS011;62136;-35.664;-63.766;2023-10-09T01:29:19;4.25;;;1.60;;
59974;SDS011;62136;-35.664;-63.766;2023-10-09T01:31:48;3.08;;;1.73;;
59974;SDS011;62136;-35.664;-63.766;2023-10-09T01:37:07;3.67;;;1.98;;
59974;SDS011;62136;-35.664;-63.766;2023-10-09T01:39:39;4.95;;;2.22;;
59974;SDS011;62136;-35.664;-63.766;2023-10-09T01:42:08;3.85;;;1.90;;
59974;SDS011;62136;-35.664;-63.766;2023-10-09T01:44:36;4.20;;;2.22;;
59974;SDS011;62136;-35.664;-63.766;2023-10-09T01:47:09;3.25;;;1.92;;
59974;SDS011;62136;-35.664;-63.766;2023-10-09T01:49:44;3.20;;;2.10;;
59974;SDS011;62136;-35.664;-63.766;2023-10-09T01:52:15;3.50;;;2.00;;
59974;SDS011;62136;-35.664;-63.766;2023-10-09T01:54:45;3.55;;;1.85;;
59974;SDS011;62136;-35.664;-63.766;2023-10-09T01:57:17;3.92;;;2.17;;
59974;SDS011;62136;-35.664;-63.766;2023-10-09T01:59:48;3.38;;;2.40;;
59974;SDS011;62136;-35.664;-63.766;2023-10-09T02:02:19;3.22;;;2.28;;
59974;SDS011;62136;-35.664;-63.766;2023-10-09T02:04:53;3.30;;;1.95;;
59974;SDS011;62136;-35.664;-63.766;2023-10-09T02:07:41;3.55;;;2.10;;
59974;SDS011;62136;-35.664;-63.766;2023-10-09T02:10:21;4.22;;;2.10;;
59974;SDS011;62136;-35.664;-63.766;2023-10-09T02:12:58;4.38;;;2.22;;
59974;SDS011;62136;-35.664;-63.766;2023-10-09T02:15:36;3.38;;;2.20;;
59974;SDS011;62136;-35.664;-63.766;2023-10-09T02:18:17;5.22;;;2.30;;
59974;SDS011;62136;-35.664;-63.766;2023-10-09T02:20:48;3.30;;;2.47;;
59974;SDS011;62136;-35.664;-63.766;2023-10-09T02:23:26;6.10;;;2.58;;
59974;SDS011;62136;-35.664;-63.766;2023-10-09T02:26:16;4.95;;;2.20;;
59974;SDS011;62136;-35.664;-63.766;2023-10-09T02:28:54;4.90;;;2.55;;
59974;SDS011;62136;-35.664;-63.766;2023-10-09T02:31:27;5.25;;;2.40;;
59974;SDS011;62136;-35.664;-63.766;2023-10-09T02:34:14;5.70;;;2.55;;
59974;SDS011;62136;-35.664;-63.766;2023-10-09T02:36:42;4.63;;;2.63;;
59974;SDS011;62136;-35.664;-63.766;2023-10-09T02:39:14;3.45;;;2.25;;
59974;SDS011;62136;-35.664;-63.766;2023-10-09T02:42:07;5.65;;;2.65;;
59974;SDS011;62136;-35.664;-63.766;2023-10-09T02:44:40;7.10;;;2.83;;
59974;SDS011;62136;-35.664;-63.766;2023-10-09T02:47:20;4.95;;;2.40;;
59974;SDS011;62136;-35.664;-63.766;2023-10-09T02:49:55;6.22;;;2.60;;
59974;SDS011;62136;-35.664;-63.766;2023-10-09T02:52:32;3.92;;;2.65;;
59974;SDS011;62136;-35.664;-63.766;2023-10-09T02:55:06;6.22;;;3.08;;
59974;SDS011;62136;-35.664;-63.766;2023-10-09T02:57:39;4.13;;;2.30;;
59974;SDS011;62136;-35.664;-63.766;2023-10-09T03:00:08;4.00;;;2.35;;
59974;SDS011;62136;-35.664;-63.766;2023-10-09T03:02:44;4.38;;;2.90;;
59974;SDS011;62136;-35.664;-63.766;2023-10-09T03:05:15;6.05;;;2.80;;
59974;SDS011;62136;-35.664;-63.766;2023-10-09T03:07:44;7.97;;;2.95;;
59974;SDS011;62136;-35.664;-63.766;2023-10-09T03:10:11;3.78;;;2.67;;
59974;SDS011;62136;-35.664;-63.766;2023-10-09T03:12:38;3.38;;;2.40;;
59974;SDS011;62136;-35.664;-63.766;2023-10-09T03:15:05;6.82;;;3.00;;
59974;SDS011;62136;-35.664;-63.766;2023-10-09T03:17:34;3.08;;;2.40;;
59974;SDS011;62136;-35.664;-63.766;2023-10-09T03:20:05;5.82;;;2.78;;
59974;SDS011;62136;-35.664;-63.766;2023-10-09T03:22:43;3.95;;;2.47;;
59974;SDS011;62136;-35.664;-63.766;2023-10-09T03:25:11;5.78;;;2.97;;
59974;SDS011;62136;-35.664;-63.766;2023-10-09T03:27:39;6.68;;;2.80;;
59974;SDS011;62136;-35.664;-63.766;2023-10-09T03:30:13;4.78;;;2.67;;
59974;SDS011;62136;-35.664;-63.766;2023-10-09T03:32:48;4.45;;;2.72;;
59974;SDS011;62136;-35.664;-63.766;2023-10-09T03:35:23;4.32;;;2.45;;
59974;SDS011;62136;-35.664;-63.766;2023-10-09T03:37:54;6.03;;;2.80;;
59974;SDS011;62136;-35.664;-63.766;2023-10-09T03:40:40;3.88;;;2.40;;
59974;SDS011;62136;-35.664;-63.766;2023-10-09T03:43:09;3.88;;;2.53;;
59974;SDS011;62136;-35.664;-63.766;2023-10-09T03:45:37;5.40;;;2.97;;
59974;SDS011;62136;-35.664;-63.766;2023-10-09T03:48:11;4.32;;;2.55;;
59974;SDS011;62136;-35.664;-63.766;2023-10-09T03:50:46;4.07;;;2.28;;
59974;SDS011;62136;-35.664;-63.766;2023-10-09T03:53:14;5.50;;;2.58;;
59974;SDS011;62136;-35.664;-63.766;2023-10-09T03:55:41;7.03;;;2.80;;
59974;SDS011;62136;-35.664;-63.766;2023-10-09T03:58:10;5.03;;;2.78;;
59974;SDS011;62136;-35.664;-63.766;2023-10-09T04:00:44;3.88;;;2.80;;
59974;SDS011;62136;-35.664;-63.766;2023-10-09T04:03:11;4.18;;;2.55;;
59974;SDS011;62136;-35.664;-63.766;2023-10-09T04:05:41;4.53;;;2.85;;
59974;SDS011;62136;-35.664;-63.766;2023-10-09T04:08:11;4.18;;;2.97;;
59974;SDS011;62136;-35.664;-63.766;2023-10-09T04:10:55;4.50;;;2.70;;
59974;SDS011;62136;-35.664;-63.766;2023-10-09T04:13:31;5.75;;;2.50;;
59974;SDS011;62136;-35.664;-63.766;2023-10-09T04:15:59;3.75;;;2.80;;
59974;SDS011;62136;-35.664;-63.766;2023-10-09T04:18:35;4.18;;;2.83;;
59974;SDS011;62136;-35.664;-63.766;2023-10-09T04:21:06;5.53;;;2.28;;
59974;SDS011;62136;-35.664;-63.766;2023-10-09T04:23:56;5.00;;;2.40;;
59974;SDS011;62136;-35.664;-63.766;2023-10-09T04:26:46;3.33;;;2.30;;
59974;SDS011;62136;-35.664;-63.766;2023-10-09T04:29:14;4.10;;;2.60;;
59974;SDS011;62136;-35.664;-63.766;2023-10-09T04:32:03;4.25;;;2.88;;
59974;SDS011;62136;-35.664;-63.766;2023-10-09T04:34:33;4.40;;;2.33;;
59974;SDS011;62136;-35.664;-63.766;2023-10-09T04:37:01;4.10;;;2.38;;
59974;SDS011;62136;-35.664;-63.766;2023-10-09T04:39:43;4.25;;;2.40;;
59974;SDS011;62136;-35.664;-63.766;2023-10-09T04:42:13;3.55;;;2.78;;
59974;SDS011;62136;-35.664;-63.766;2023-10-09T04:44:45;3.53;;;2.80;;
59974;SDS011;62136;-35.664;-63.766;2023-10-09T04:47:31;4.18;;;2.28;;
59974;SDS011;62136;-35.664;-63.766;2023-10-09T04:52:57;4.45;;;2.60;;
59974;SDS011;62136;-35.664;-63.766;2023-10-09T04:55:44;4.93;;;2.42;;
59974;SDS011;62136;-35.664;-63.766;2023-10-09T04:58:23;5.25;;;2.58;;
59974;SDS011;62136;-35.664;-63.766;2023-10-09T05:00:52;4.53;;;2.53;;
59974;SDS011;62136;-35.664;-63.766;2023-10-09T05:03:25;4.28;;;2.50;;
59974;SDS011;62136;-35.664;-63.766;2023-10-09T05:06:09;3.45;;;2.70;;
59974;SDS011;62136;-35.664;-63.766;2023-10-09T05:08:54;2.53;;;2.10;;
59974;SDS011;62136;-35.664;-63.766;2023-10-09T05:11:34;4.75;;;2.28;;
59974;SDS011;62136;-35.664;-63.766;2023-10-09T05:14:20;3.88;;;2.63;;
59974;SDS011;62136;-35.664;-63.766;2023-10-09T05:16:53;5.28;;;2.95;;
59974;SDS011;62136;-35.664;-63.766;2023-10-09T05:19:23;3.97;;;2.47;;
59974;SDS011;62136;-35.664;-63.766;2023-10-09T05:22:08;4.25;;;2.10;;
59974;SDS011;62136;-35.664;-63.766;2023-10-09T05:24:57;4.97;;;2.47;;
59974;SDS011;62136;-35.664;-63.766;2023-10-09T05:27:24;6.25;;;3.10;;
59974;SDS011;62136;-35.664;-63.766;2023-10-09T05:30:09;4.25;;;2.90;;
59974;SDS011;62136;-35.664;-63.766;2023-10-09T05:32:55;3.97;;;2.90;;
59974;SDS011;62136;-35.664;-63.766;2023-10-09T05:35:45;2.92;;;2.40;;
59974;SDS011;62136;-35.664;-63.766;2023-10-09T05:38:32;4.25;;;2.20;;
59974;SDS011;62136;-35.664;-63.766;2023-10-09T05:41:14;3.67;;;2.25;;
59974;SDS011;62136;-35.664;-63.766;2023-10-09T05:44:11;2.95;;;2.20;;
59974;SDS011;62136;-35.664;-63.766;2023-10-09T05:46:56;4.07;;;2.38;;
59974;SDS011;62136;-35.664;-63.766;2023-10-09T05:49:41;3.90;;;2.63;;
59974;SDS011;62136;-35.664;-63.766;2023-10-09T05:52:21;4.32;;;2.67;;
59974;SDS011;62136;-35.664;-63.766;2023-10-09T05:54:58;3.13;;;2.10;;
59974;SDS011;62136;-35.664;-63.766;2023-10-09T05:57:44;3.60;;;2.30;;
59974;SDS011;62136;-35.664;-63.766;2023-10-09T06:00:31;5.57;;;2.53;;
59974;SDS011;62136;-35.664;-63.766;2023-10-09T06:03:16;3.67;;;2.40;;
59974;SDS011;62136;-35.664;-63.766;2023-10-09T06:08:19;3.30;;;1.90;;
59974;SDS011;62136;-35.664;-63.766;2023-10-09T06:11:04;4.60;;;2.38;;
59974;SDS011;62136;-35.664;-63.766;2023-10-09T06:13:52;4.32;;;2.55;;
59974;SDS011;62136;-35.664;-63.766;2023-10-09T06:16:34;4.18;;;2.17;;
59974;SDS011;62136;-35.664;-63.766;2023-10-09T06:19:09;2.83;;;2.28;;
59974;SDS011;62136;-35.664;-63.766;2023-10-09T06:21:38;3.13;;;2.30;;
59974;SDS011;62136;-35.664;-63.766;2023-10-09T06:24:25;2.70;;;2.13;;
59974;SDS011;62136;-35.664;-63.766;2023-10-09T06:26:59;2.78;;;1.90;;
59974;SDS011;62136;-35.664;-63.766;2023-10-09T06:29:29;3.08;;;2.22;;
59974;SDS011;62136;-35.664;-63.766;2023-10-09T06:32:08;3.65;;;1.98;;
59974;SDS011;62136;-35.664;-63.766;2023-10-09T06:34:45;3.10;;;2.20;;
59974;SDS011;62136;-35.664;-63.766;2023-10-09T06:37:25;2.97;;;2.10;;
59974;SDS011;62136;-35.664;-63.766;2023-10-09T06:39:55;2.75;;;2.10;;
59974;SDS011;62136;-35.664;-63.766;2023-10-09T06:42:26;3.15;;;1.88;;
59974;SDS011;62136;-35.664;-63.766;2023-10-09T06:45:00;2.35;;;1.92;;
59974;SDS011;62136;-35.664;-63.766;2023-10-09T06:50:29;4.22;;;2.30;;
59974;SDS011;62136;-35.664;-63.766;2023-10-09T06:53:14;3.97;;;1.92;;
59974;SDS011;62136;-35.664;-63.766;2023-10-09T06:55:41;3.60;;;2.70;;
59974;SDS011;62136;-35.664;-63.766;2023-10-09T06:58:14;3.33;;;2.42;;
59974;SDS011;62136;-35.664;-63.766;2023-10-09T07:00:49;4.10;;;1.98;;
59974;SDS011;62136;-35.664;-63.766;2023-10-09T07:03:25;2.90;;;2.13;;
59974;SDS011;62136;-35.664;-63.766;2023-10-09T07:06:05;4.00;;;2.33;;
59974;SDS011;62136;-35.664;-63.766;2023-10-09T07:08:52;2.70;;;2.00;;
59974;SDS011;62136;-35.664;-63.766;2023-10-09T07:11:32;3.03;;;2.03;;
59974;SDS011;62136;-35.664;-63.766;2023-10-09T07:14:18;3.53;;;1.88;;
59974;SDS011;62136;-35.664;-63.766;2023-10-09T07:17:17;3.05;;;2.13;;
59974;SDS011;62136;-35.664;-63.766;2023-10-09T07:19:49;3.10;;;1.88;;
59974;SDS011;62136;-35.664;-63.766;2023-10-09T07:22:17;3.33;;;2.10;;
59974;SDS011;62136;-35.664;-63.766;2023-10-09T07:27:22;3.55;;;2.22;;
59974;SDS011;62136;-35.664;-63.766;2023-10-09T07:30:08;4.35;;;2.25;;
59974;SDS011;62136;-35.664;-63.766;2023-10-09T07:33:02;3.17;;;1.70;;
59974;SDS011;62136;-35.664;-63.766;2023-10-09T07:35:39;3.70;;;2.00;;
59974;SDS011;62136;-35.664;-63.766;2023-10-09T07:38:11;2.90;;;1.92;;
59974;SDS011;62136;-35.664;-63.766;2023-10-09T07:40:40;2.13;;;1.75;;
59974;SDS011;62136;-35.664;-63.766;2023-10-09T07:43:28;4.15;;;2.47;;
59974;SDS011;62136;-35.664;-63.766;2023-10-09T07:46:05;2.70;;;1.98;;
59974;SDS011;62136;-35.664;-63.766;2023-10-09T07:48:50;2.63;;;1.90;;
59974;SDS011;62136;-35.664;-63.766;2023-10-09T07:51:18;2.47;;;1.90;;
59974;SDS011;62136;-35.664;-63.766;2023-10-09T07:54:05;2.50;;;2.03;;
59974;SDS011;62136;-35.664;-63.766;2023-10-09T07:56:35;3.40;;;1.80;;
59974;SDS011;62136;-35.664;-63.766;2023-10-09T07:59:18;2.83;;;1.90;;
59974;SDS011;62136;-35.664;-63.766;2023-10-09T08:01:49;2.88;;;1.90;;
59974;SDS011;62136;-35.664;-63.766;2023-10-09T08:04:28;3.10;;;1.90;;
59974;SDS011;62136;-35.664;-63.766;2023-10-09T08:07:13;2.60;;;2.10;;
59974;SDS011;62136;-35.664;-63.766;2023-10-09T08:10:06;2.75;;;1.90;;
59974;SDS011;62136;-35.664;-63.766;2023-10-09T08:12:46;2.35;;;1.90;;
59974;SDS011;62136;-35.664;-63.766;2023-10-09T08:15:17;3.33;;;2.00;;
59974;SDS011;62136;-35.664;-63.766;2023-10-09T08:20:50;2.38;;;1.80;;
59974;SDS011;62136;-35.664;-63.766;2023-10-09T08:23:37;2.70;;;2.10;;
59974;SDS011;62136;-35.664;-63.766;2023-10-09T08:26:18;2.42;;;2.20;;
59974;SDS011;62136;-35.664;-63.766;2023-10-09T08:31:43;2.20;;;1.77;;
59974;SDS011;62136;-35.664;-63.766;2023-10-09T08:34:22;2.47;;;1.80;;
59974;SDS011;62136;-35.664;-63.766;2023-10-09T08:36:52;3.53;;;1.80;;
59974;SDS011;62136;-35.664;-63.766;2023-10-09T08:39:20;2.78;;;1.80;;
59974;SDS011;62136;-35.664;-63.766;2023-10-09T08:41:58;1.88;;;1.48;;
59974;SDS011;62136;-35.664;-63.766;2023-10-09T08:44:27;3.10;;;1.90;;
59974;SDS011;62136;-35.664;-63.766;2023-10-09T08:46:57;3.45;;;2.05;;
59974;SDS011;62136;-35.664;-63.766;2023-10-09T08:49:25;3.25;;;1.83;;
59974;SDS011;62136;-35.664;-63.766;2023-10-09T08:51:53;3.28;;;2.03;;
59974;SDS011;62136;-35.664;-63.766;2023-10-09T08:54:21;2.28;;;1.60;;
59974;SDS011;62136;-35.664;-63.766;2023-10-09T08:56:48;2.15;;;1.73;;
59974;SDS011;62136;-35.664;-63.766;2023-10-09T08:59:16;3.58;;;1.70;;
59974;SDS011;62136;-35.664;-63.766;2023-10-09T09:01:44;3.00;;;1.95;;
59974;SDS011;62136;-35.664;-63.766;2023-10-09T09:07:02;2.50;;;1.63;;
59974;SDS011;62136;-35.664;-63.766;2023-10-09T09:09:29;2.35;;;1.85;;
59974;SDS011;62136;-35.664;-63.766;2023-10-09T09:11:57;3.97;;;1.67;;
59974;SDS011;62136;-35.664;-63.766;2023-10-09T09:14:38;1.63;;;1.52;;
59974;SDS011;62136;-35.664;-63.766;2023-10-09T09:17:08;2.83;;;1.98;;
59974;SDS011;62136;-35.664;-63.766;2023-10-09T09:19:37;3.05;;;1.70;;
59974;SDS011;62136;-35.664;-63.766;2023-10-09T09:22:04;2.90;;;1.60;;
59974;SDS011;62136;-35.664;-63.766;2023-10-09T09:24:38;1.77;;;1.60;;
59974;SDS011;62136;-35.664;-63.766;2023-10-09T09:27:11;3.03;;;1.90;;
59974;SDS011;62136;-35.664;-63.766;2023-10-09T09:29:41;2.40;;;1.77;;
59974;SDS011;62136;-35.664;-63.766;2023-10-09T09:32:07;3.10;;;1.95;;
59974;SDS011;62136;-35.664;-63.766;2023-10-09T09:37:20;3.05;;;1.80;;
59974;SDS011;62136;-35.664;-63.766;2023-10-09T09:40:04;2.33;;;1.70;;
59974;SDS011;62136;-35.664;-63.766;2023-10-09T09:45:46;1.92;;;1.40;;
59974;SDS011;62136;-35.664;-63.766;2023-10-09T09:48:18;1.95;;;1.65;;
59974;SDS011;62136;-35.664;-63.766;2023-10-09T09:50:45;2.92;;;2.00;;
59974;SDS011;62136;-35.664;-63.766;2023-10-09T09:53:13;2.28;;;1.67;;
59974;SDS011;62136;-35.664;-63.766;2023-10-09T09:55:53;2.22;;;1.50;;
59974;SDS011;62136;-35.664;-63.766;2023-10-09T09:58:25;2.28;;;1.70;;
59974;SDS011;62136;-35.664;-63.766;2023-10-09T10:01:07;2.53;;;1.70;;
59974;SDS011;62136;-35.664;-63.766;2023-10-09T10:04:04;2.95;;;1.50;;
59974;SDS011;62136;-35.664;-63.766;2023-10-09T10:06:33;1.50;;;1.40;;
59974;SDS011;62136;-35.664;-63.766;2023-10-09T10:09:01;2.63;;;1.60;;
59974;SDS011;62136;-35.664;-63.766;2023-10-09T10:11:44;2.50;;;1.60;;
59974;SDS011;62136;-35.664;-63.766;2023-10-09T10:14:17;1.67;;;1.40;;
59974;SDS011;62136;-35.664;-63.766;2023-10-09T10:17:03;3.72;;;1.77;;
59974;SDS011;62136;-35.664;-63.766;2023-10-09T10:22:40;1.98;;;1.33;;
59974;SDS011;62136;-35.664;-63.766;2023-10-09T10:28:19;2.88;;;1.50;;
59974;SDS011;62136;-35.664;-63.766;2023-10-09T10:31:08;1.95;;;1.60;;
59974;SDS011;62136;-35.664;-63.766;2023-10-09T10:36:21;3.88;;;1.92;;
59974;SDS011;62136;-35.664;-63.766;2023-10-09T10:39:01;1.83;;;1.73;;
59974;SDS011;62136;-35.664;-63.766;2023-10-09T10:41:36;1.90;;;1.42;;
59974;SDS011;62136;-35.664;-63.766;2023-10-09T10:44:26;1.65;;;1.55;;
59974;SDS011;62136;-35.664;-63.766;2023-10-09T10:47:04;1.83;;;1.50;;
59974;SDS011;62136;-35.664;-63.766;2023-10-09T10:49:51;1.83;;;1.10;;
59974;SDS011;62136;-35.664;-63.766;2023-10-09T10:52:40;3.03;;;1.60;;
59974;SDS011;62136;-35.664;-63.766;2023-10-09T10:55:07;2.42;;;1.77;;
59974;SDS011;62136;-35.664;-63.766;2023-10-09T10:57:54;1.98;;;1.60;;
59974;SDS011;62136;-35.664;-63.766;2023-10-09T11:00:36;1.85;;;1.48;;
59974;SDS011;62136;-35.664;-63.766;2023-10-09T11:03:21;4.18;;;1.50;;
59974;SDS011;62136;-35.664;-63.766;2023-10-09T11:06:01;1.50;;;1.40;;
59974;SDS011;62136;-35.664;-63.766;2023-10-09T11:08:46;1.73;;;1.60;;
59974;SDS011;62136;-35.664;-63.766;2023-10-09T11:11:20;2.35;;;1.77;;
59974;SDS011;62136;-35.664;-63.766;2023-10-09T11:13:48;3.63;;;1.83;;
59974;SDS011;62136;-35.664;-63.766;2023-10-09T11:16:20;3.40;;;2.08;;
59974;SDS011;62136;-35.664;-63.766;2023-10-09T11:19:10;3.47;;;2.53;;
59974;SDS011;62136;-35.664;-63.766;2023-10-09T11:21:49;2.92;;;1.80;;
59974;SDS011;62136;-35.664;-63.766;2023-10-09T11:24:46;2.60;;;2.03;;
59974;SDS011;62136;-35.664;-63.766;2023-10-09T11:27:26;3.53;;;1.92;;
59974;SDS011;62136;-35.664;-63.766;2023-10-09T11:29:58;4.70;;;2.25;;
59974;SDS011;62136;-35.664;-63.766;2023-10-09T11:32:35;4.88;;;2.00;;
59974;SDS011;62136;-35.664;-63.766;2023-10-09T11:35:11;3.80;;;2.22;;
59974;SDS011;62136;-35.664;-63.766;2023-10-09T11:37:58;4.10;;;1.60;;
59974;SDS011;62136;-35.664;-63.766;2023-10-09T11:40:32;5.72;;;2.38;;
59974;SDS011;62136;-35.664;-63.766;2023-10-09T11:43:18;2.63;;;1.63;;
59974;SDS011;62136;-35.664;-63.766;2023-10-09T11:46:11;4.40;;;1.75;;
59974;SDS011;62136;-35.664;-63.766;2023-10-09T11:49:09;3.72;;;1.90;;
59974;SDS011;62136;-35.664;-63.766;2023-10-09T11:52:09;4.07;;;2.10;;
59974;SDS011;62136;-35.664;-63.766;2023-10-09T11:54:39;7.10;;;2.08;;
59974;SDS011;62136;-35.664;-63.766;2023-10-09T11:57:11;7.80;;;2.25;;
59974;SDS011;62136;-35.664;-63.766;2023-10-09T11:59:38;5.05;;;2.22;;
59974;SDS011;62136;-35.664;-63.766;2023-10-09T12:02:07;6.95;;;2.35;;
59974;SDS011;62136;-35.664;-63.766;2023-10-09T12:04:39;11.40;;;2.25;;
59974;SDS011;62136;-35.664;-63.766;2023-10-09T12:07:09;5.53;;;2.22;;
59974;SDS011;62136;-35.664;-63.766;2023-10-09T12:09:36;7.20;;;2.20;;
59974;SDS011;62136;-35.664;-63.766;2023-10-09T12:12:08;7.32;;;2.15;;
59974;SDS011;62136;-35.664;-63.766;2023-10-09T12:14:35;4.95;;;2.00;;
59974;SDS011;62136;-35.664;-63.766;2023-10-09T12:17:08;6.78;;;2.40;;
59974;SDS011;62136;-35.664;-63.766;2023-10-09T12:19:36;7.03;;;2.25;;
59974;SDS011;62136;-35.664;-63.766;2023-10-09T12:22:05;9.35;;;3.58;;
59974;SDS011;62136;-35.664;-63.766;2023-10-09T12:24:53;9.45;;;3.40;;
59974;SDS011;62136;-35.664;-63.766;2023-10-09T12:27:22;8.88;;;4.20;;
59974;SDS011;62136;-35.664;-63.766;2023-10-09T12:29:50;14.43;;;4.38;;
59974;SDS011;62136;-35.664;-63.766;2023-10-09T12:32:19;14.20;;;5.40;;
59974;SDS011;62136;-35.664;-63.766;2023-10-09T12:34:46;10.38;;;4.47;;
59974;SDS011;62136;-35.664;-63.766;2023-10-09T12:37:19;10.77;;;4.70;;
59974;SDS011;62136;-35.664;-63.766;2023-10-09T12:39:49;15.05;;;4.88;;
59974;SDS011;62136;-35.664;-63.766;2023-10-09T12:42:21;11.82;;;4.85;;
59974;SDS011;62136;-35.664;-63.766;2023-10-09T12:44:48;9.48;;;5.32;;
59974;SDS011;62136;-35.664;-63.766;2023-10-09T12:47:17;14.43;;;5.43;;
59974;SDS011;62136;-35.664;-63.766;2023-10-09T12:49:48;12.13;;;5.22;;
59974;SDS011;62136;-35.664;-63.766;2023-10-09T12:52:15;16.83;;;5.55;;
59974;SDS011;62136;-35.664;-63.766;2023-10-09T12:54:43;13.43;;;5.47;;
59974;SDS011;62136;-35.664;-63.766;2023-10-09T12:57:13;13.45;;;4.85;;
59974;SDS011;62136;-35.664;-63.766;2023-10-09T12:59:41;12.48;;;5.60;;
59974;SDS011;62136;-35.664;-63.766;2023-10-09T13:02:14;10.32;;;5.18;;
59974;SDS011;62136;-35.664;-63.766;2023-10-09T13:05:01;12.18;;;4.88;;
59974;SDS011;62136;-35.664;-63.766;2023-10-09T13:07:31;12.50;;;5.55;;
59974;SDS011;62136;-35.664;-63.766;2023-10-09T13:09:58;11.57;;;4.50;;
59974;SDS011;62136;-35.664;-63.766;2023-10-09T13:12:35;14.68;;;4.68;;
59974;SDS011;62136;-35.664;-63.766;2023-10-09T13:15:07;10.57;;;4.32;;
59974;SDS011;62136;-35.664;-63.766;2023-10-09T13:17:36;13.73;;;4.30;;
59974;SDS011;62136;-35.664;-63.766;2023-10-09T13:20:03;11.20;;;3.15;;
59974;SDS011;62136;-35.664;-63.766;2023-10-09T13:22:40;10.27;;;3.58;;
59974;SDS011;62136;-35.664;-63.766;2023-10-09T13:25:14;5.80;;;2.50;;
59974;SDS011;62136;-35.664;-63.766;2023-10-09T13:27:44;9.85;;;2.70;;
59974;SDS011;62136;-35.664;-63.766;2023-10-09T13:32:50;6.32;;;2.53;;
59974;SDS011;62136;-35.664;-63.766;2023-10-09T13:35:18;7.03;;;2.90;;
59974;SDS011;62136;-35.664;-63.766;2023-10-09T13:37:53;9.57;;;2.90;;
59974;SDS011;62136;-35.664;-63.766;2023-10-09T13:40:23;7.85;;;3.08;;
59974;SDS011;62136;-35.664;-63.766;2023-10-09T13:42:56;9.82;;;2.80;;
59974;SDS011;62136;-35.664;-63.766;2023-10-09T13:45:25;10.00;;;2.60;;
59974;SDS011;62136;-35.664;-63.766;2023-10-09T13:47:56;7.35;;;2.70;;
59974;SDS011;62136;-35.664;-63.766;2023-10-09T13:50:23;7.63;;;2.45;;
59974;SDS011;62136;-35.664;-63.766;2023-10-09T13:52:55;7.53;;;2.60;;
59974;SDS011;62136;-35.664;-63.766;2023-10-09T13:55:22;7.05;;;2.45;;
59974;SDS011;62136;-35.664;-63.766;2023-10-09T13:57:57;7.05;;;2.55;;
59974;SDS011;62136;-35.664;-63.766;2023-10-09T14:00:24;7.35;;;2.42;;
59974;SDS011;62136;-35.664;-63.766;2023-10-09T14:03:08;7.68;;;2.00;;
59974;SDS011;62136;-35.664;-63.766;2023-10-09T14:05:39;12.95;;;3.47;;
59974;SDS011;62136;-35.664;-63.766;2023-10-09T14:08:24;10.30;;;2.70;;
59974;SDS011;62136;-35.664;-63.766;2023-10-09T14:10:54;12.05;;;2.78;;
59974;SDS011;62136;-35.664;-63.766;2023-10-09T14:13:23;17.38;;;3.40;;
59974;SDS011;62136;-35.664;-63.766;2023-10-09T14:15:54;10.80;;;2.80;;
59974;SDS011;62136;-35.664;-63.766;2023-10-09T14:18:23;13.13;;;2.85;;
59974;SDS011;62136;-35.664;-63.766;2023-10-09T14:20:55;11.73;;;2.80;;
59974;SDS011;62136;-35.664;-63.766;2023-10-09T14:23:24;13.40;;;3.25;;
59974;SDS011;62136;-35.664;-63.766;2023-10-09T14:26:14;11.85;;;3.58;;
59974;SDS011;62136;-35.664;-63.766;2023-10-09T14:28:44;12.57;;;2.53;;
59974;SDS011;62136;-35.664;-63.766;2023-10-09T14:31:11;9.15;;;2.80;;
59974;SDS011;62136;-35.664;-63.766;2023-10-09T14:33:40;13.98;;;3.05;;
59974;SDS011;62136;-35.664;-63.766;2023-10-09T14:36:17;12.40;;;3.00;;
59974;SDS011;62136;-35.664;-63.766;2023-10-09T14:38:44;12.63;;;2.53;;
59974;SDS011;62136;-35.664;-63.766;2023-10-09T14:41:12;12.00;;;3.17;;
59974;SDS011;62136;-35.664;-63.766;2023-10-09T14:43:39;8.60;;;2.30;;
59974;SDS011;62136;-35.664;-63.766;2023-10-09T14:46:06;9.18;;;2.47;;
59974;SDS011;62136;-35.664;-63.766;2023-10-09T14:48:40;15.65;;;2.88;;
59974;SDS011;62136;-35.664;-63.766;2023-10-09T14:51:11;11.85;;;2.15;;
59974;SDS011;62136;-35.664;-63.766;2023-10-09T14:53:39;10.27;;;2.33;;
59974;SDS011;62136;-35.664;-63.766;2023-10-09T14:56:06;10.60;;;2.95;;
59974;SDS011;62136;-35.664;-63.766;2023-10-09T14:58:40;10.98;;;3.22;;
59974;SDS011;62136;-35.664;-63.766;2023-10-09T15:01:08;7.78;;;2.00;;
59974;SDS011;62136;-35.664;-63.766;2023-10-09T15:03:36;10.20;;;2.53;;
59974;SDS011;62136;-35.664;-63.766;2023-10-09T15:06:03;9.23;;;2.20;;
59974;SDS011;62136;-35.664;-63.766;2023-10-09T15:08:36;8.73;;;2.30;;
59974;SDS011;62136;-35.664;-63.766;2023-10-09T15:11:03;7.25;;;1.90;;
59974;SDS011;62136;-35.664;-63.766;2023-10-09T15:13:31;7.47;;;2.10;;
59974;SDS011;62136;-35.664;-63.766;2023-10-09T15:15:59;7.53;;;2.13;;
59974;SDS011;62136;-35.664;-63.766;2023-10-09T15:18:30;7.30;;;2.65;;
59974;SDS011;62136;-35.664;-63.766;2023-10-09T15:21:05;7.15;;;2.20;;
59974;SDS011;62136;-35.664;-63.766;2023-10-09T15:23:35;8.68;;;2.33;;
59974;SDS011;62136;-35.664;-63.766;2023-10-09T15:26:02;5.85;;;2.53;;
59974;SDS011;62136;-35.664;-63.766;2023-10-09T15:28:32;10.15;;;2.65;;
59974;SDS011;62136;-35.664;-63.766;2023-10-09T15:30:59;8.30;;;2.50;;
59974;SDS011;62136;-35.664;-63.766;2023-10-09T15:33:29;8.90;;;2.30;;
59974;SDS011;62136;-35.664;-63.766;2023-10-09T15:35:56;5.72;;;2.30;;